Aviation Digital Data Service (ADDS)

Output produced by METARs form (0922 UTC 25 May 2015)
found at http://aviationweather.gov/adds/metars/
 
KRDU 250828Z 2508/2606 19006KT P6SM FEW200 
     FM251500 21010KT P6SM FEW050 SCT250